sensor_id;sensor_type;location;lat;lon;timestamp;pressure;altitude;pressure_sealevel;temperature;humidity
75745;BME280;64359;51.366;-0.222;2023-09-19T00:00:01;100514.63;;;22.08;52.87
75745;BME280;64359;51.366;-0.222;2023-09-19T00:01:06;100513.12;;;22.07;52.78
75745;BME280;64359;51.366;-0.222;2023-09-19T00:02:11;100513.59;;;22.08;52.85
75745;BME280;64359;51.366;-0.222;2023-09-19T00:03:16;100514.09;;;22.08;52.93
75745;BME280;64359;51.366;-0.222;2023-09-19T00:04:20;100518.42;;;22.08;52.93
75745;BME280;64359;51.366;-0.222;2023-09-19T00:05:35;100518.14;;;22.08;52.93
75745;BME280;64359;51.366;-0.222;2023-09-19T00:06:41;100519.59;;;22.08;52.97
75745;BME280;64359;51.366;-0.222;2023-09-19T00:07:47;100516.41;;;22.07;53.03
75745;BME280;64359;51.366;-0.222;2023-09-19T00:08:51;100513.70;;;22.07;53.07
75745;BME280;64359;51.366;-0.222;2023-09-19T00:09:56;100511.83;;;22.06;52.95
75745;BME280;64359;51.366;-0.222;2023-09-19T00:11:00;100514.46;;;22.07;53.02
75745;BME280;64359;51.366;-0.222;2023-09-19T00:12:09;100513.91;;;22.07;53.09
75745;BME280;64359;51.366;-0.222;2023-09-19T00:13:13;100516.84;;;22.06;53.13
75745;BME280;64359;51.366;-0.222;2023-09-19T00:14:17;100518.42;;;22.07;53.04
75745;BME280;64359;51.366;-0.222;2023-09-19T00:15:22;100520.42;;;22.07;53.19
75745;BME280;64359;51.366;-0.222;2023-09-19T00:16:26;100517.00;;;22.06;53.18
75745;BME280;64359;51.366;-0.222;2023-09-19T00:17:30;100519.30;;;22.05;53.31
75745;BME280;64359;51.366;-0.222;2023-09-19T00:18:35;100521.98;;;22.06;53.21
75745;BME280;64359;51.366;-0.222;2023-09-19T00:19:39;100521.09;;;22.06;53.42
75745;BME280;64359;51.366;-0.222;2023-09-19T00:20:46;100518.42;;;22.05;53.16
75745;BME280;64359;51.366;-0.222;2023-09-19T00:21:50;100521.51;;;22.05;53.19
75745;BME280;64359;51.366;-0.222;2023-09-19T00:22:56;100518.54;;;22.05;53.09
75745;BME280;64359;51.366;-0.222;2023-09-19T00:24:09;100518.59;;;22.05;53.28
75745;BME280;64359;51.366;-0.222;2023-09-19T00:25:15;100513.27;;;22.04;53.19
75745;BME280;64359;51.366;-0.222;2023-09-19T00:26:19;100510.36;;;22.04;53.13
75745;BME280;64359;51.366;-0.222;2023-09-19T00:27:24;100512.16;;;22.04;53.29
75745;BME280;64359;51.366;-0.222;2023-09-19T00:28:28;100509.23;;;22.05;53.42
75745;BME280;64359;51.366;-0.222;2023-09-19T00:29:34;100508.36;;;22.04;53.29
75745;BME280;64359;51.366;-0.222;2023-09-19T00:30:39;100508.70;;;22.05;53.41
75745;BME280;64359;51.366;-0.222;2023-09-19T00:31:46;100504.23;;;22.04;53.33
75745;BME280;64359;51.366;-0.222;2023-09-19T00:32:52;100502.98;;;22.04;53.22
75745;BME280;64359;51.366;-0.222;2023-09-19T00:33:57;100501.38;;;22.04;53.41
75745;BME280;64359;51.366;-0.222;2023-09-19T00:35:06;100499.25;;;22.04;53.30
75745;BME280;64359;51.366;-0.222;2023-09-19T00:36:12;100495.17;;;22.03;53.27
75745;BME280;64359;51.366;-0.222;2023-09-19T00:37:17;100500.95;;;22.03;53.41
75745;BME280;64359;51.366;-0.222;2023-09-19T00:38:22;100498.30;;;22.03;53.49
75745;BME280;64359;51.366;-0.222;2023-09-19T00:39:29;100497.34;;;22.00;53.32
75745;BME280;64359;51.366;-0.222;2023-09-19T00:40:34;100496.33;;;22.01;53.38
75745;BME280;64359;51.366;-0.222;2023-09-19T00:41:39;100500.55;;;22.01;53.24
75745;BME280;64359;51.366;-0.222;2023-09-19T00:42:48;100499.16;;;22.00;53.28
75745;BME280;64359;51.366;-0.222;2023-09-19T00:43:53;100500.15;;;21.99;53.25
75745;BME280;64359;51.366;-0.222;2023-09-19T00:44:58;100497.14;;;21.99;53.17
75745;BME280;64359;51.366;-0.222;2023-09-19T00:46:02;100495.84;;;21.99;53.25
75745;BME280;64359;51.366;-0.222;2023-09-19T00:47:09;100504.93;;;21.99;53.12
75745;BME280;64359;51.366;-0.222;2023-09-19T00:48:17;100502.72;;;21.98;53.10
75745;BME280;64359;51.366;-0.222;2023-09-19T00:49:22;100506.84;;;21.95;53.36
75745;BME280;64359;51.366;-0.222;2023-09-19T00:50:28;100511.02;;;21.95;53.25
75745;BME280;64359;51.366;-0.222;2023-09-19T00:51:35;100512.10;;;21.94;53.35
75745;BME280;64359;51.366;-0.222;2023-09-19T00:52:40;100513.73;;;21.94;53.40
75745;BME280;64359;51.366;-0.222;2023-09-19T00:53:45;100516.10;;;21.94;53.21
75745;BME280;64359;51.366;-0.222;2023-09-19T00:54:50;100515.09;;;21.93;53.16
75745;BME280;64359;51.366;-0.222;2023-09-19T00:55:55;100517.20;;;21.94;53.15
75745;BME280;64359;51.366;-0.222;2023-09-19T00:57:00;100516.10;;;21.94;53.16
75745;BME280;64359;51.366;-0.222;2023-09-19T00:58:05;100517.02;;;21.94;53.25
75745;BME280;64359;51.366;-0.222;2023-09-19T00:59:10;100516.86;;;21.93;53.32
75745;BME280;64359;51.366;-0.222;2023-09-19T01:00:15;100512.14;;;21.94;53.30
75745;BME280;64359;51.366;-0.222;2023-09-19T01:01:22;100514.69;;;21.93;53.54
75745;BME280;64359;51.366;-0.222;2023-09-19T01:02:28;100513.81;;;21.93;53.48
75745;BME280;64359;51.366;-0.222;2023-09-19T01:03:33;100512.77;;;21.93;53.38
75745;BME280;64359;51.366;-0.222;2023-09-19T01:04:37;100510.14;;;21.92;53.30
75745;BME280;64359;51.366;-0.222;2023-09-19T01:05:42;100516.10;;;21.92;53.29
75745;BME280;64359;51.366;-0.222;2023-09-19T01:06:46;100513.30;;;21.93;53.37
75745;BME280;64359;51.366;-0.222;2023-09-19T01:07:55;100516.60;;;21.93;53.33
75745;BME280;64359;51.366;-0.222;2023-09-19T01:09:00;100518.27;;;21.92;53.34
75745;BME280;64359;51.366;-0.222;2023-09-19T01:10:08;100519.14;;;21.93;53.42
75745;BME280;64359;51.366;-0.222;2023-09-19T01:11:21;100523.48;;;21.92;53.51
75745;BME280;64359;51.366;-0.222;2023-09-19T01:12:33;100522.44;;;21.92;53.53
75745;BME280;64359;51.366;-0.222;2023-09-19T01:13:50;100525.45;;;21.91;53.44
75745;BME280;64359;51.366;-0.222;2023-09-19T01:15:06;100524.56;;;21.91;53.50
75745;BME280;64359;51.366;-0.222;2023-09-19T01:16:30;100524.94;;;21.91;53.36
75745;BME280;64359;51.366;-0.222;2023-09-19T01:17:45;100524.31;;;21.89;53.37
75745;BME280;64359;51.366;-0.222;2023-09-19T01:18:55;100528.65;;;21.89;53.56
75745;BME280;64359;51.366;-0.222;2023-09-19T01:20:19;100528.64;;;21.88;53.47
75745;BME280;64359;51.366;-0.222;2023-09-19T01:21:32;100531.02;;;21.88;53.66
75745;BME280;64359;51.366;-0.222;2023-09-19T01:23:05;100533.69;;;21.87;53.48
75745;BME280;64359;51.366;-0.222;2023-09-19T01:24:34;100530.84;;;21.85;53.43
75745;BME280;64359;51.366;-0.222;2023-09-19T01:26:07;100524.38;;;21.83;53.49
75745;BME280;64359;51.366;-0.222;2023-09-19T01:27:30;100527.16;;;21.83;53.35
75745;BME280;64359;51.366;-0.222;2023-09-19T01:28:45;100531.04;;;21.82;53.48
75745;BME280;64359;51.366;-0.222;2023-09-19T01:30:09;100526.27;;;21.81;53.59
75745;BME280;64359;51.366;-0.222;2023-09-19T01:31:14;100528.70;;;21.81;53.50
75745;BME280;64359;51.366;-0.222;2023-09-19T01:32:19;100531.08;;;21.80;53.48
75745;BME280;64359;51.366;-0.222;2023-09-19T01:33:25;100528.23;;;21.80;53.60
75745;BME280;64359;51.366;-0.222;2023-09-19T01:34:44;100532.41;;;21.80;53.65
75745;BME280;64359;51.366;-0.222;2023-09-19T01:35:51;100533.16;;;21.80;53.59
75745;BME280;64359;51.366;-0.222;2023-09-19T01:37:00;100534.99;;;21.80;53.34
75745;BME280;64359;51.366;-0.222;2023-09-19T01:38:05;100529.58;;;21.80;53.44
75745;BME280;64359;51.366;-0.222;2023-09-19T01:39:13;100534.58;;;21.80;53.47
75745;BME280;64359;51.366;-0.222;2023-09-19T01:40:20;100521.40;;;21.74;53.37
75745;BME280;64359;51.366;-0.222;2023-09-19T01:41:33;100532.40;;;21.80;53.43
75745;BME280;64359;51.366;-0.222;2023-09-19T01:42:45;100532.86;;;21.79;53.35
75745;BME280;64359;51.366;-0.222;2023-09-19T01:43:50;100535.20;;;21.80;53.45
75745;BME280;64359;51.366;-0.222;2023-09-19T01:44:59;100534.65;;;21.80;53.45
75745;BME280;64359;51.366;-0.222;2023-09-19T01:46:12;100529.95;;;21.79;53.40
75745;BME280;64359;51.366;-0.222;2023-09-19T01:47:26;100531.11;;;21.79;53.45
75745;BME280;64359;51.366;-0.222;2023-09-19T01:48:38;100525.30;;;21.79;53.38
75745;BME280;64359;51.366;-0.222;2023-09-19T01:49:54;100524.84;;;21.78;53.47
75745;BME280;64359;51.366;-0.222;2023-09-19T01:51:02;100522.51;;;21.78;53.60
75745;BME280;64359;51.366;-0.222;2023-09-19T01:52:11;100524.22;;;21.78;53.56
75745;BME280;64359;51.366;-0.222;2023-09-19T01:53:24;100525.48;;;21.78;53.58
75745;BME280;64359;51.366;-0.222;2023-09-19T01:54:33;100525.72;;;21.77;53.34
75745;BME280;64359;51.366;-0.222;2023-09-19T01:55:46;100527.00;;;21.77;53.66
75745;BME280;64359;51.366;-0.222;2023-09-19T01:56:59;100524.66;;;21.77;53.57
75745;BME280;64359;51.366;-0.222;2023-09-19T01:58:08;100524.53;;;21.76;53.85
75745;BME280;64359;51.366;-0.222;2023-09-19T01:59:24;100523.42;;;21.75;53.67
75745;BME280;64359;51.366;-0.222;2023-09-19T02:00:30;100523.23;;;21.75;53.40
75745;BME280;64359;51.366;-0.222;2023-09-19T02:01:38;100520.05;;;21.75;53.56
75745;BME280;64359;51.366;-0.222;2023-09-19T02:02:46;100520.58;;;21.75;53.72
75745;BME280;64359;51.366;-0.222;2023-09-19T02:03:51;100521.16;;;21.74;53.47
75745;BME280;64359;51.366;-0.222;2023-09-19T02:04:57;100523.92;;;21.74;53.63
75745;BME280;64359;51.366;-0.222;2023-09-19T02:06:01;100522.27;;;21.71;53.44
75745;BME280;64359;51.366;-0.222;2023-09-19T02:07:08;100525.42;;;21.74;53.50
75745;BME280;64359;51.366;-0.222;2023-09-19T02:08:12;100524.71;;;21.73;53.31
75745;BME280;64359;51.366;-0.222;2023-09-19T02:09:20;100523.30;;;21.73;53.34
75745;BME280;64359;51.366;-0.222;2023-09-19T02:10:24;100523.70;;;21.73;53.43
75745;BME280;64359;51.366;-0.222;2023-09-19T02:11:28;100528.34;;;21.73;53.29
75745;BME280;64359;51.366;-0.222;2023-09-19T02:12:33;100525.54;;;21.73;53.45
75745;BME280;64359;51.366;-0.222;2023-09-19T02:13:38;100525.58;;;21.72;53.45
75745;BME280;64359;51.366;-0.222;2023-09-19T02:14:43;100528.29;;;21.72;53.46
75745;BME280;64359;51.366;-0.222;2023-09-19T02:15:48;100528.75;;;21.72;53.40
75745;BME280;64359;51.366;-0.222;2023-09-19T02:16:52;100527.33;;;21.71;53.18
75745;BME280;64359;51.366;-0.222;2023-09-19T02:17:56;100535.46;;;21.71;53.40
75745;BME280;64359;51.366;-0.222;2023-09-19T02:19:02;100535.63;;;21.71;53.31
75745;BME280;64359;51.366;-0.222;2023-09-19T02:20:10;100533.05;;;21.71;53.25
75745;BME280;64359;51.366;-0.222;2023-09-19T02:21:17;100534.01;;;21.72;53.28
75745;BME280;64359;51.366;-0.222;2023-09-19T02:22:22;100532.41;;;21.70;53.34
75745;BME280;64359;51.366;-0.222;2023-09-19T02:23:27;100535.38;;;21.71;53.32
75745;BME280;64359;51.366;-0.222;2023-09-19T02:24:33;100531.75;;;21.71;53.29
75745;BME280;64359;51.366;-0.222;2023-09-19T02:25:38;100536.05;;;21.71;53.51
75745;BME280;64359;51.366;-0.222;2023-09-19T02:26:43;100534.34;;;21.71;53.52
75745;BME280;64359;51.366;-0.222;2023-09-19T02:27:47;100534.70;;;21.70;53.31
75745;BME280;64359;51.366;-0.222;2023-09-19T02:28:52;100538.46;;;21.71;53.36
75745;BME280;64359;51.366;-0.222;2023-09-19T02:29:56;100539.77;;;21.70;53.51
75745;BME280;64359;51.366;-0.222;2023-09-19T02:31:01;100538.71;;;21.70;53.34
75745;BME280;64359;51.366;-0.222;2023-09-19T02:32:08;100539.84;;;21.70;53.36
75745;BME280;64359;51.366;-0.222;2023-09-19T02:33:13;100537.20;;;21.68;53.30
75745;BME280;64359;51.366;-0.222;2023-09-19T02:34:17;100539.63;;;21.70;53.48
75745;BME280;64359;51.366;-0.222;2023-09-19T02:35:22;100541.64;;;21.70;53.41
75745;BME280;64359;51.366;-0.222;2023-09-19T02:36:29;100543.22;;;21.70;53.43
75745;BME280;64359;51.366;-0.222;2023-09-19T02:37:34;100541.46;;;21.70;53.48
75745;BME280;64359;51.366;-0.222;2023-09-19T02:38:38;100543.02;;;21.69;53.48
75745;BME280;64359;51.366;-0.222;2023-09-19T02:39:42;100546.55;;;21.69;53.59
75745;BME280;64359;51.366;-0.222;2023-09-19T02:40:47;100543.88;;;21.69;53.45
75745;BME280;64359;51.366;-0.222;2023-09-19T02:41:51;100542.84;;;21.69;53.62
75745;BME280;64359;51.366;-0.222;2023-09-19T02:42:57;100543.21;;;21.69;53.47
75745;BME280;64359;51.366;-0.222;2023-09-19T02:44:02;100544.38;;;21.68;53.46
75745;BME280;64359;51.366;-0.222;2023-09-19T02:45:11;100535.27;;;21.66;53.38
75745;BME280;64359;51.366;-0.222;2023-09-19T02:46:15;100541.79;;;21.69;53.43
75745;BME280;64359;51.366;-0.222;2023-09-19T02:47:20;100540.48;;;21.68;53.42
75745;BME280;64359;51.366;-0.222;2023-09-19T02:48:24;100534.44;;;21.67;53.52
75745;BME280;64359;51.366;-0.222;2023-09-19T02:49:29;100538.24;;;21.68;53.47
75745;BME280;64359;51.366;-0.222;2023-09-19T02:50:33;100539.03;;;21.68;53.54
75745;BME280;64359;51.366;-0.222;2023-09-19T02:51:38;100535.03;;;21.68;53.59
75745;BME280;64359;51.366;-0.222;2023-09-19T02:52:44;100537.36;;;21.68;53.71
75745;BME280;64359;51.366;-0.222;2023-09-19T02:53:50;100534.56;;;21.66;53.65
75745;BME280;64359;51.366;-0.222;2023-09-19T02:54:55;100536.40;;;21.67;53.63
75745;BME280;64359;51.366;-0.222;2023-09-19T02:56:00;100539.11;;;21.67;53.67
75745;BME280;64359;51.366;-0.222;2023-09-19T02:57:05;100536.27;;;21.67;53.62
75745;BME280;64359;51.366;-0.222;2023-09-19T02:58:10;100531.73;;;21.67;53.62
75745;BME280;64359;51.366;-0.222;2023-09-19T02:59:15;100525.30;;;21.66;53.55
75745;BME280;64359;51.366;-0.222;2023-09-19T03:00:20;100522.88;;;21.66;53.65
75745;BME280;64359;51.366;-0.222;2023-09-19T03:01:25;100516.04;;;21.65;53.72
75745;BME280;64359;51.366;-0.222;2023-09-19T03:02:30;100514.66;;;21.65;53.49
75745;BME280;64359;51.366;-0.222;2023-09-19T03:03:37;100512.87;;;21.65;53.52
75745;BME280;64359;51.366;-0.222;2023-09-19T03:04:42;100510.27;;;21.64;53.52
75745;BME280;64359;51.366;-0.222;2023-09-19T03:05:48;100511.15;;;21.64;53.42
75745;BME280;64359;51.366;-0.222;2023-09-19T03:06:54;100514.69;;;21.63;53.53
75745;BME280;64359;51.366;-0.222;2023-09-19T03:08:03;100514.45;;;21.62;53.47
75745;BME280;64359;51.366;-0.222;2023-09-19T03:09:08;100514.86;;;21.62;53.59
75745;BME280;64359;51.366;-0.222;2023-09-19T03:10:16;100515.81;;;21.61;53.55
75745;BME280;64359;51.366;-0.222;2023-09-19T03:11:21;100520.19;;;21.61;53.36
75745;BME280;64359;51.366;-0.222;2023-09-19T03:12:26;100519.32;;;21.61;53.46
75745;BME280;64359;51.366;-0.222;2023-09-19T03:13:31;100515.52;;;21.61;53.43
75745;BME280;64359;51.366;-0.222;2023-09-19T03:14:35;100517.39;;;21.61;53.50
75745;BME280;64359;51.366;-0.222;2023-09-19T03:15:42;100517.73;;;21.61;53.55
75745;BME280;64359;51.366;-0.222;2023-09-19T03:16:49;100517.77;;;21.61;53.55
75745;BME280;64359;51.366;-0.222;2023-09-19T03:17:55;100515.05;;;21.61;53.64
75745;BME280;64359;51.366;-0.222;2023-09-19T03:19:00;100513.93;;;21.59;53.49
75745;BME280;64359;51.366;-0.222;2023-09-19T03:20:06;100519.60;;;21.59;53.62
75745;BME280;64359;51.366;-0.222;2023-09-19T03:21:12;100515.50;;;21.59;53.46
75745;BME280;64359;51.366;-0.222;2023-09-19T03:22:17;100516.30;;;21.58;53.48
75745;BME280;64359;51.366;-0.222;2023-09-19T03:23:22;100516.01;;;21.57;53.44
75745;BME280;64359;51.366;-0.222;2023-09-19T03:24:26;100513.88;;;21.57;53.42
75745;BME280;64359;51.366;-0.222;2023-09-19T03:25:33;100510.49;;;21.57;53.31
75745;BME280;64359;51.366;-0.222;2023-09-19T03:26:37;100512.29;;;21.57;53.38
75745;BME280;64359;51.366;-0.222;2023-09-19T03:27:42;100508.73;;;21.56;53.40
75745;BME280;64359;51.366;-0.222;2023-09-19T03:28:46;100508.28;;;21.56;53.43
75745;BME280;64359;51.366;-0.222;2023-09-19T03:29:51;100508.27;;;21.56;53.34
75745;BME280;64359;51.366;-0.222;2023-09-19T03:31:02;100510.33;;;21.55;53.35
75745;BME280;64359;51.366;-0.222;2023-09-19T03:32:07;100510.02;;;21.55;53.31
75745;BME280;64359;51.366;-0.222;2023-09-19T03:33:12;100506.85;;;21.54;53.37
75745;BME280;64359;51.366;-0.222;2023-09-19T03:34:17;100507.98;;;21.54;53.39
75745;BME280;64359;51.366;-0.222;2023-09-19T03:35:22;100508.42;;;21.53;53.30
75745;BME280;64359;51.366;-0.222;2023-09-19T03:36:26;100512.21;;;21.53;53.41
75745;BME280;64359;51.366;-0.222;2023-09-19T03:37:32;100512.53;;;21.52;53.36
75745;BME280;64359;51.366;-0.222;2023-09-19T03:38:37;100509.56;;;21.51;53.31
75745;BME280;64359;51.366;-0.222;2023-09-19T03:39:41;100507.94;;;21.51;53.46
75745;BME280;64359;51.366;-0.222;2023-09-19T03:40:46;100509.73;;;21.52;53.66
75745;BME280;64359;51.366;-0.222;2023-09-19T03:41:50;100505.71;;;21.50;53.54
75745;BME280;64359;51.366;-0.222;2023-09-19T03:42:55;100502.67;;;21.50;53.54
75745;BME280;64359;51.366;-0.222;2023-09-19T03:43:59;100502.71;;;21.50;53.45
75745;BME280;64359;51.366;-0.222;2023-09-19T03:45:04;100499.87;;;21.50;53.51
75745;BME280;64359;51.366;-0.222;2023-09-19T03:46:09;100502.88;;;21.50;53.45
75745;BME280;64359;51.366;-0.222;2023-09-19T03:47:15;100503.79;;;21.50;53.52
75745;BME280;64359;51.366;-0.222;2023-09-19T03:48:20;100499.04;;;21.49;53.61
75745;BME280;64359;51.366;-0.222;2023-09-19T03:49:24;100493.74;;;21.49;53.70
75745;BME280;64359;51.366;-0.222;2023-09-19T03:50:28;100492.49;;;21.49;53.50
75745;BME280;64359;51.366;-0.222;2023-09-19T03:51:33;100488.48;;;21.47;53.54
75745;BME280;64359;51.366;-0.222;2023-09-19T03:52:37;100489.45;;;21.49;53.46
75745;BME280;64359;51.366;-0.222;2023-09-19T03:53:42;100489.65;;;21.49;53.66
75745;BME280;64359;51.366;-0.222;2023-09-19T03:54:46;100486.40;;;21.49;53.77
75745;BME280;64359;51.366;-0.222;2023-09-19T03:55:50;100483.56;;;21.49;53.78
75745;BME280;64359;51.366;-0.222;2023-09-19T03:56:54;100480.14;;;21.48;53.83
75745;BME280;64359;51.366;-0.222;2023-09-19T03:57:59;100477.98;;;21.48;53.73
75745;BME280;64359;51.366;-0.222;2023-09-19T03:59:03;100477.80;;;21.48;53.80
75745;BME280;64359;51.366;-0.222;2023-09-19T04:00:09;100468.70;;;21.46;53.86
75745;BME280;64359;51.366;-0.222;2023-09-19T04:01:14;100471.59;;;21.47;53.90
75745;BME280;64359;51.366;-0.222;2023-09-19T04:02:19;100470.89;;;21.47;54.10
75745;BME280;64359;51.366;-0.222;2023-09-19T04:03:27;100464.25;;;21.47;54.14
75745;BME280;64359;51.366;-0.222;2023-09-19T04:04:37;100462.91;;;21.46;54.01
75745;BME280;64359;51.366;-0.222;2023-09-19T04:05:42;100458.50;;;21.45;53.95
75745;BME280;64359;51.366;-0.222;2023-09-19T04:06:46;100457.20;;;21.45;54.08
75745;BME280;64359;51.366;-0.222;2023-09-19T04:07:51;100455.11;;;21.44;54.00
75745;BME280;64359;51.366;-0.222;2023-09-19T04:08:56;100455.66;;;21.44;54.14
75745;BME280;64359;51.366;-0.222;2023-09-19T04:10:00;100454.20;;;21.45;54.03
75745;BME280;64359;51.366;-0.222;2023-09-19T04:11:06;100447.40;;;21.44;54.09
75745;BME280;64359;51.366;-0.222;2023-09-19T04:12:10;100446.89;;;21.44;54.08
75745;BME280;64359;51.366;-0.222;2023-09-19T04:13:15;100444.05;;;21.43;54.15
75745;BME280;64359;51.366;-0.222;2023-09-19T04:14:19;100438.67;;;21.43;54.05
75745;BME280;64359;51.366;-0.222;2023-09-19T04:15:24;100434.52;;;21.43;54.13
75745;BME280;64359;51.366;-0.222;2023-09-19T04:16:28;100431.38;;;21.42;54.20
75745;BME280;64359;51.366;-0.222;2023-09-19T04:17:33;100430.46;;;21.42;54.24
75745;BME280;64359;51.366;-0.222;2023-09-19T04:18:37;100433.34;;;21.42;54.12
75745;BME280;64359;51.366;-0.222;2023-09-19T04:19:42;100436.75;;;21.40;54.27
75745;BME280;64359;51.366;-0.222;2023-09-19T04:20:50;100438.64;;;21.42;54.45
75745;BME280;64359;51.366;-0.222;2023-09-19T04:21:54;100440.39;;;21.43;54.32
75745;BME280;64359;51.366;-0.222;2023-09-19T04:22:59;100434.50;;;21.41;54.29
75745;BME280;64359;51.366;-0.222;2023-09-19T04:24:03;100439.94;;;21.42;54.36
75745;BME280;64359;51.366;-0.222;2023-09-19T04:25:08;100430.41;;;21.41;54.41
75745;BME280;64359;51.366;-0.222;2023-09-19T04:26:13;100430.24;;;21.41;54.34
75745;BME280;64359;51.366;-0.222;2023-09-19T04:27:19;100428.08;;;21.41;54.45
75745;BME280;64359;51.366;-0.222;2023-09-19T04:28:24;100429.46;;;21.40;54.53
75745;BME280;64359;51.366;-0.222;2023-09-19T04:29:30;100424.08;;;21.40;54.38
75745;BME280;64359;51.366;-0.222;2023-09-19T04:30:35;100425.54;;;21.40;54.54
75745;BME280;64359;51.366;-0.222;2023-09-19T04:31:40;100421.37;;;21.40;54.59
75745;BME280;64359;51.366;-0.222;2023-09-19T04:32:46;100422.58;;;21.40;54.57
75745;BME280;64359;51.366;-0.222;2023-09-19T04:33:53;100419.03;;;21.40;54.62
75745;BME280;64359;51.366;-0.222;2023-09-19T04:34:57;100416.02;;;21.40;54.76
75745;BME280;64359;51.366;-0.222;2023-09-19T04:36:05;100415.31;;;21.40;54.74
75745;BME280;64359;51.366;-0.222;2023-09-19T04:37:10;100411.02;;;21.39;54.65
75745;BME280;64359;51.366;-0.222;2023-09-19T04:38:14;100412.89;;;21.39;54.71
75745;BME280;64359;51.366;-0.222;2023-09-19T04:39:19;100409.98;;;21.39;54.75
75745;BME280;64359;51.366;-0.222;2023-09-19T04:40:24;100411.73;;;21.39;54.72
75745;BME280;64359;51.366;-0.222;2023-09-19T04:41:29;100406.06;;;21.39;54.84
75745;BME280;64359;51.366;-0.222;2023-09-19T04:42:33;100405.10;;;21.39;54.88
75745;BME280;64359;51.366;-0.222;2023-09-19T04:43:38;100405.72;;;21.38;54.92
75745;BME280;64359;51.366;-0.222;2023-09-19T04:44:42;100405.02;;;21.38;54.95
75745;BME280;64359;51.366;-0.222;2023-09-19T04:45:46;100407.39;;;21.38;54.96
75745;BME280;64359;51.366;-0.222;2023-09-19T04:46:51;100402.48;;;21.38;54.91
75745;BME280;64359;51.366;-0.222;2023-09-19T04:47:55;100406.85;;;21.38;54.91
75745;BME280;64359;51.366;-0.222;2023-09-19T04:49:00;100411.18;;;21.38;55.11
75745;BME280;64359;51.366;-0.222;2023-09-19T04:50:06;100410.27;;;21.38;55.12
75745;BME280;64359;51.366;-0.222;2023-09-19T04:51:11;100412.55;;;21.37;55.03
75745;BME280;64359;51.366;-0.222;2023-09-19T04:52:16;100411.55;;;21.36;55.11
75745;BME280;64359;51.366;-0.222;2023-09-19T04:53:22;100411.42;;;21.36;55.03
75745;BME280;64359;51.366;-0.222;2023-09-19T04:54:26;100413.76;;;21.36;55.08
75745;BME280;64359;51.366;-0.222;2023-09-19T04:55:31;100414.92;;;21.36;55.18
75745;BME280;64359;51.366;-0.222;2023-09-19T04:56:35;100411.17;;;21.35;55.09
75745;BME280;64359;51.366;-0.222;2023-09-19T04:57:43;100405.90;;;21.33;55.20
75745;BME280;64359;51.366;-0.222;2023-09-19T04:58:48;100411.45;;;21.35;55.19
75745;BME280;64359;51.366;-0.222;2023-09-19T04:59:53;100404.04;;;21.35;55.15
75745;BME280;64359;51.366;-0.222;2023-09-19T05:00:57;100412.04;;;21.34;55.18
75745;BME280;64359;51.366;-0.222;2023-09-19T05:02:02;100412.59;;;21.34;55.13
75745;BME280;64359;51.366;-0.222;2023-09-19T05:03:07;100414.96;;;21.34;55.05
75745;BME280;64359;51.366;-0.222;2023-09-19T05:04:12;100412.02;;;21.32;55.14
75745;BME280;64359;51.366;-0.222;2023-09-19T05:05:16;100415.38;;;21.34;55.18
75745;BME280;64359;51.366;-0.222;2023-09-19T05:06:22;100418.21;;;21.34;55.21
75745;BME280;64359;51.366;-0.222;2023-09-19T05:07:26;100422.59;;;21.34;55.11
75745;BME280;64359;51.366;-0.222;2023-09-19T05:08:30;100420.92;;;21.34;55.22
75745;BME280;64359;51.366;-0.222;2023-09-19T05:09:35;100420.39;;;21.34;55.36
75745;BME280;64359;51.366;-0.222;2023-09-19T05:10:40;100417.34;;;21.34;55.35
75745;BME280;64359;51.366;-0.222;2023-09-19T05:11:44;100422.59;;;21.34;55.45
75745;BME280;64359;51.366;-0.222;2023-09-19T05:12:49;100423.89;;;21.34;55.38
75745;BME280;64359;51.366;-0.222;2023-09-19T05:13:56;100422.27;;;21.34;55.30
75745;BME280;64359;51.366;-0.222;2023-09-19T05:15:05;100423.09;;;21.33;55.37
75745;BME280;64359;51.366;-0.222;2023-09-19T05:16:11;100426.00;;;21.32;55.39
75745;BME280;64359;51.366;-0.222;2023-09-19T05:17:15;100422.71;;;21.33;55.45
75745;BME280;64359;51.366;-0.222;2023-09-19T05:18:20;100424.38;;;21.33;55.41
75745;BME280;64359;51.366;-0.222;2023-09-19T05:19:25;100429.42;;;21.33;55.50
75745;BME280;64359;51.366;-0.222;2023-09-19T05:20:30;100431.67;;;21.32;55.56
75745;BME280;64359;51.366;-0.222;2023-09-19T05:21:36;100430.42;;;21.32;55.46
75745;BME280;64359;51.366;-0.222;2023-09-19T05:22:41;100429.20;;;21.32;55.57
75745;BME280;64359;51.366;-0.222;2023-09-19T05:23:46;100429.96;;;21.31;55.58
75745;BME280;64359;51.366;-0.222;2023-09-19T05:24:50;100428.41;;;21.31;55.45
75745;BME280;64359;51.366;-0.222;2023-09-19T05:25:56;100425.41;;;21.30;55.52
75745;BME280;64359;51.366;-0.222;2023-09-19T05:27:03;100428.61;;;21.30;55.62
75745;BME280;64359;51.366;-0.222;2023-09-19T05:28:11;100428.68;;;21.30;55.64
75745;BME280;64359;51.366;-0.222;2023-09-19T05:29:18;100431.30;;;21.29;55.80
75745;BME280;64359;51.366;-0.222;2023-09-19T05:30:22;100431.48;;;21.30;55.77
75745;BME280;64359;51.366;-0.222;2023-09-19T05:31:27;100431.87;;;21.29;55.76
75745;BME280;64359;51.366;-0.222;2023-09-19T05:32:31;100430.09;;;21.29;55.73
75745;BME280;64359;51.366;-0.222;2023-09-19T05:33:35;100426.52;;;21.27;55.72
75745;BME280;64359;51.366;-0.222;2023-09-19T05:34:40;100429.20;;;21.29;55.69
75745;BME280;64359;51.366;-0.222;2023-09-19T05:35:44;100433.16;;;21.29;55.74
75745;BME280;64359;51.366;-0.222;2023-09-19T05:36:50;100433.03;;;21.28;55.74
75745;BME280;64359;51.366;-0.222;2023-09-19T05:37:55;100430.40;;;21.28;55.70
75745;BME280;64359;51.366;-0.222;2023-09-19T05:39:01;100426.10;;;21.26;55.72
75745;BME280;64359;51.366;-0.222;2023-09-19T05:40:07;100429.73;;;21.27;55.77
75745;BME280;64359;51.366;-0.222;2023-09-19T05:41:13;100431.20;;;21.28;55.82
75745;BME280;64359;51.366;-0.222;2023-09-19T05:42:19;100431.27;;;21.27;55.84